sensor_id;sensor_type;location;lat;lon;timestamp;temperature;humidity
47338;DHT22;33069;51.970;5.892;2024-02-21T00:02:06;9.10;84.60
47338;DHT22;33069;51.970;5.892;2024-02-21T00:04:52;9.10;84.70
47338;DHT22;33069;51.970;5.892;2024-02-21T00:07:38;9.10;84.60
47338;DHT22;33069;51.970;5.892;2024-02-21T00:10:24;9.10;84.60
47338;DHT22;33069;51.970;5.892;2024-02-21T00:13:11;9.10;84.60
47338;DHT22;33069;51.970;5.892;2024-02-21T00:15:57;9.10;84.70
47338;DHT22;33069;51.970;5.892;2024-02-21T00:18:44;9.10;84.70
47338;DHT22;33069;51.970;5.892;2024-02-21T00:21:30;9.10;84.80
47338;DHT22;33069;51.970;5.892;2024-02-21T00:24:16;9.10;84.80
47338;DHT22;33069;51.970;5.892;2024-02-21T00:27:02;9.10;84.80
47338;DHT22;33069;51.970;5.892;2024-02-21T00:29:48;9.20;84.70
47338;DHT22;33069;51.970;5.892;2024-02-21T00:32:34;9.10;84.70
47338;DHT22;33069;51.970;5.892;2024-02-21T00:35:20;9.10;84.80
47338;DHT22;33069;51.970;5.892;2024-02-21T00:38:06;9.20;84.60
47338;DHT22;33069;51.970;5.892;2024-02-21T00:40:52;9.20;84.70
47338;DHT22;33069;51.970;5.892;2024-02-21T00:43:38;9.20;84.60
47338;DHT22;33069;51.970;5.892;2024-02-21T00:46:24;9.10;84.60
47338;DHT22;33069;51.970;5.892;2024-02-21T00:49:10;9.10;84.80
47338;DHT22;33069;51.970;5.892;2024-02-21T00:51:56;9.20;84.80
47338;DHT22;33069;51.970;5.892;2024-02-21T00:54:42;9.20;84.80
47338;DHT22;33069;51.970;5.892;2024-02-21T00:57:27;9.20;84.70
47338;DHT22;33069;51.970;5.892;2024-02-21T01:00:14;9.20;84.80
47338;DHT22;33069;51.970;5.892;2024-02-21T01:03:00;9.10;84.70
47338;DHT22;33069;51.970;5.892;2024-02-21T01:05:46;9.10;84.90
47338;DHT22;33069;51.970;5.892;2024-02-21T01:08:32;9.10;85.00
47338;DHT22;33069;51.970;5.892;2024-02-21T01:11:18;9.20;85.00
47338;DHT22;33069;51.970;5.892;2024-02-21T01:14:04;9.10;84.90
47338;DHT22;33069;51.970;5.892;2024-02-21T01:16:50;9.20;84.80
47338;DHT22;33069;51.970;5.892;2024-02-21T01:19:35;9.20;84.70
47338;DHT22;33069;51.970;5.892;2024-02-21T01:22:21;9.20;84.50
47338;DHT22;33069;51.970;5.892;2024-02-21T01:25:08;9.10;84.60
47338;DHT22;33069;51.970;5.892;2024-02-21T01:27:54;9.10;84.70
47338;DHT22;33069;51.970;5.892;2024-02-21T01:30:39;9.20;84.80
47338;DHT22;33069;51.970;5.892;2024-02-21T01:33:25;9.20;84.70
47338;DHT22;33069;51.970;5.892;2024-02-21T01:36:11;9.20;84.60
47338;DHT22;33069;51.970;5.892;2024-02-21T01:38:57;9.10;84.60
47338;DHT22;33069;51.970;5.892;2024-02-21T01:41:43;9.10;84.60
47338;DHT22;33069;51.970;5.892;2024-02-21T01:44:29;9.10;84.60
47338;DHT22;33069;51.970;5.892;2024-02-21T01:47:15;9.10;84.70
47338;DHT22;33069;51.970;5.892;2024-02-21T01:50:01;9.00;84.80
47338;DHT22;33069;51.970;5.892;2024-02-21T01:52:49;9.00;85.10
47338;DHT22;33069;51.970;5.892;2024-02-21T01:55:35;9.00;85.20
47338;DHT22;33069;51.970;5.892;2024-02-21T01:58:22;9.00;85.10
47338;DHT22;33069;51.970;5.892;2024-02-21T02:01:10;9.00;85.10
47338;DHT22;33069;51.970;5.892;2024-02-21T02:03:56;9.10;84.90
47338;DHT22;33069;51.970;5.892;2024-02-21T02:06:42;9.10;84.70
47338;DHT22;33069;51.970;5.892;2024-02-21T02:09:29;9.00;84.80
47338;DHT22;33069;51.970;5.892;2024-02-21T02:12:15;9.10;84.90
47338;DHT22;33069;51.970;5.892;2024-02-21T02:15:02;9.00;84.90
47338;DHT22;33069;51.970;5.892;2024-02-21T02:17:50;9.10;84.90
47338;DHT22;33069;51.970;5.892;2024-02-21T02:20:36;9.00;84.80
47338;DHT22;33069;51.970;5.892;2024-02-21T02:23:26;9.00;84.60
47338;DHT22;33069;51.970;5.892;2024-02-21T02:26:13;9.00;84.80
47338;DHT22;33069;51.970;5.892;2024-02-21T02:29:01;9.00;84.80
47338;DHT22;33069;51.970;5.892;2024-02-21T02:31:49;9.00;84.80
47338;DHT22;33069;51.970;5.892;2024-02-21T02:34:35;9.00;84.80
47338;DHT22;33069;51.970;5.892;2024-02-21T02:37:21;9.00;84.70
47338;DHT22;33069;51.970;5.892;2024-02-21T02:40:07;9.00;84.70
47338;DHT22;33069;51.970;5.892;2024-02-21T02:42:53;9.00;84.90
47338;DHT22;33069;51.970;5.892;2024-02-21T02:45:40;8.90;84.90
47338;DHT22;33069;51.970;5.892;2024-02-21T02:48:26;9.00;84.90
47338;DHT22;33069;51.970;5.892;2024-02-21T02:51:12;9.00;84.90
47338;DHT22;33069;51.970;5.892;2024-02-21T02:53:58;9.00;84.70
47338;DHT22;33069;51.970;5.892;2024-02-21T02:56:44;9.00;84.60
47338;DHT22;33069;51.970;5.892;2024-02-21T02:59:30;9.00;84.90
47338;DHT22;33069;51.970;5.892;2024-02-21T03:02:17;8.90;84.80
47338;DHT22;33069;51.970;5.892;2024-02-21T03:05:12;9.00;85.00
47338;DHT22;33069;51.970;5.892;2024-02-21T03:07:59;8.90;84.90
47338;DHT22;33069;51.970;5.892;2024-02-21T03:10:45;8.80;84.80
47338;DHT22;33069;51.970;5.892;2024-02-21T03:13:31;8.90;85.00
47338;DHT22;33069;51.970;5.892;2024-02-21T03:16:17;8.80;84.90
47338;DHT22;33069;51.970;5.892;2024-02-21T03:19:03;8.80;85.10
47338;DHT22;33069;51.970;5.892;2024-02-21T03:21:49;8.80;84.90
47338;DHT22;33069;51.970;5.892;2024-02-21T03:24:35;8.80;85.10
47338;DHT22;33069;51.970;5.892;2024-02-21T03:27:21;8.90;85.10
47338;DHT22;33069;51.970;5.892;2024-02-21T03:30:07;8.90;85.10
47338;DHT22;33069;51.970;5.892;2024-02-21T03:32:54;8.80;85.00
47338;DHT22;33069;51.970;5.892;2024-02-21T03:35:40;8.90;85.10
47338;DHT22;33069;51.970;5.892;2024-02-21T03:38:25;8.80;85.00
47338;DHT22;33069;51.970;5.892;2024-02-21T03:41:11;8.80;84.90
47338;DHT22;33069;51.970;5.892;2024-02-21T03:43:58;8.80;84.80
47338;DHT22;33069;51.970;5.892;2024-02-21T03:46:43;9.00;85.00
47338;DHT22;33069;51.970;5.892;2024-02-21T03:49:29;8.90;84.80
47338;DHT22;33069;51.970;5.892;2024-02-21T03:52:15;9.00;84.70
47338;DHT22;33069;51.970;5.892;2024-02-21T03:55:02;9.00;84.80
47338;DHT22;33069;51.970;5.892;2024-02-21T03:57:48;9.00;84.70
47338;DHT22;33069;51.970;5.892;2024-02-21T04:00:34;9.00;84.60
47338;DHT22;33069;51.970;5.892;2024-02-21T04:03:20;9.00;84.70
47338;DHT22;33069;51.970;5.892;2024-02-21T04:06:06;9.00;84.50
47338;DHT22;33069;51.970;5.892;2024-02-21T04:08:52;9.00;84.50
47338;DHT22;33069;51.970;5.892;2024-02-21T04:11:38;9.00;84.50
47338;DHT22;33069;51.970;5.892;2024-02-21T04:14:24;9.10;84.50
47338;DHT22;33069;51.970;5.892;2024-02-21T04:17:10;9.00;84.30
47338;DHT22;33069;51.970;5.892;2024-02-21T04:20:04;9.00;84.30
47338;DHT22;33069;51.970;5.892;2024-02-21T04:22:51;9.00;84.20
47338;DHT22;33069;51.970;5.892;2024-02-21T04:25:37;8.90;84.40
47338;DHT22;33069;51.970;5.892;2024-02-21T04:28:23;9.00;84.50
47338;DHT22;33069;51.970;5.892;2024-02-21T04:31:08;9.10;84.30
47338;DHT22;33069;51.970;5.892;2024-02-21T04:33:55;9.00;84.20
47338;DHT22;33069;51.970;5.892;2024-02-21T04:36:41;9.00;84.30
47338;DHT22;33069;51.970;5.892;2024-02-21T04:39:27;9.00;84.10
47338;DHT22;33069;51.970;5.892;2024-02-21T04:42:13;9.10;84.00
47338;DHT22;33069;51.970;5.892;2024-02-21T04:44:59;9.00;84.20
47338;DHT22;33069;51.970;5.892;2024-02-21T04:47:45;8.90;84.10
47338;DHT22;33069;51.970;5.892;2024-02-21T04:50:31;9.00;84.30
47338;DHT22;33069;51.970;5.892;2024-02-21T04:53:17;8.90;84.20
47338;DHT22;33069;51.970;5.892;2024-02-21T04:56:03;8.90;84.10
47338;DHT22;33069;51.970;5.892;2024-02-21T04:58:49;8.90;84.10
47338;DHT22;33069;51.970;5.892;2024-02-21T05:01:35;9.00;84.20
47338;DHT22;33069;51.970;5.892;2024-02-21T05:04:21;9.00;84.20
47338;DHT22;33069;51.970;5.892;2024-02-21T05:07:07;8.90;84.00
47338;DHT22;33069;51.970;5.892;2024-02-21T05:09:53;9.00;84.00
47338;DHT22;33069;51.970;5.892;2024-02-21T05:12:39;8.90;83.90
47338;DHT22;33069;51.970;5.892;2024-02-21T05:15:25;8.90;83.90
47338;DHT22;33069;51.970;5.892;2024-02-21T05:18:11;8.90;83.80
47338;DHT22;33069;51.970;5.892;2024-02-21T05:20:57;8.90;83.80
47338;DHT22;33069;51.970;5.892;2024-02-21T05:23:43;8.90;83.90
47338;DHT22;33069;51.970;5.892;2024-02-21T05:26:29;9.00;83.90
47338;DHT22;33069;51.970;5.892;2024-02-21T05:29:15;9.00;83.80
47338;DHT22;33069;51.970;5.892;2024-02-21T05:32:01;9.00;83.70
47338;DHT22;33069;51.970;5.892;2024-02-21T05:34:51;9.00;83.70
47338;DHT22;33069;51.970;5.892;2024-02-21T05:37:37;9.00;83.70
47338;DHT22;33069;51.970;5.892;2024-02-21T05:40:23;9.00;83.70
47338;DHT22;33069;51.970;5.892;2024-02-21T05:43:09;9.00;83.50
47338;DHT22;33069;51.970;5.892;2024-02-21T05:45:55;9.00;83.60
47338;DHT22;33069;51.970;5.892;2024-02-21T05:48:41;9.00;83.50
47338;DHT22;33069;51.970;5.892;2024-02-21T05:51:27;9.00;83.70
47338;DHT22;33069;51.970;5.892;2024-02-21T05:54:13;8.90;83.80
47338;DHT22;33069;51.970;5.892;2024-02-21T05:56:59;9.00;83.70
47338;DHT22;33069;51.970;5.892;2024-02-21T05:59:45;8.90;83.70
47338;DHT22;33069;51.970;5.892;2024-02-21T06:02:31;9.00;83.70
47338;DHT22;33069;51.970;5.892;2024-02-21T06:05:17;9.00;83.70
47338;DHT22;33069;51.970;5.892;2024-02-21T06:08:03;9.00;83.60
47338;DHT22;33069;51.970;5.892;2024-02-21T06:10:49;9.00;83.60
47338;DHT22;33069;51.970;5.892;2024-02-21T06:13:41;9.00;83.70
47338;DHT22;33069;51.970;5.892;2024-02-21T06:16:26;9.00;83.50
47338;DHT22;33069;51.970;5.892;2024-02-21T06:19:12;9.00;83.60
47338;DHT22;33069;51.970;5.892;2024-02-21T06:21:58;9.00;83.50
47338;DHT22;33069;51.970;5.892;2024-02-21T06:24:44;9.00;83.70
47338;DHT22;33069;51.970;5.892;2024-02-21T06:27:31;9.00;83.60
47338;DHT22;33069;51.970;5.892;2024-02-21T06:30:17;9.00;83.60
47338;DHT22;33069;51.970;5.892;2024-02-21T06:33:03;9.00;83.60
47338;DHT22;33069;51.970;5.892;2024-02-21T06:35:49;9.00;83.50
47338;DHT22;33069;51.970;5.892;2024-02-21T06:38:37;9.00;83.50
47338;DHT22;33069;51.970;5.892;2024-02-21T06:41:24;9.00;83.50
47338;DHT22;33069;51.970;5.892;2024-02-21T06:44:10;9.00;83.30
47338;DHT22;33069;51.970;5.892;2024-02-21T06:46:56;9.00;83.20
47338;DHT22;33069;51.970;5.892;2024-02-21T06:49:41;8.90;83.20
47338;DHT22;33069;51.970;5.892;2024-02-21T06:52:28;9.10;83.30
47338;DHT22;33069;51.970;5.892;2024-02-21T06:55:14;9.00;83.10
47338;DHT22;33069;51.970;5.892;2024-02-21T06:57:59;9.00;83.00
47338;DHT22;33069;51.970;5.892;2024-02-21T07:00:45;9.00;82.90
47338;DHT22;33069;51.970;5.892;2024-02-21T07:03:31;9.10;82.80
47338;DHT22;33069;51.970;5.892;2024-02-21T07:06:17;9.00;82.70
47338;DHT22;33069;51.970;5.892;2024-02-21T07:09:03;9.00;82.70
47338;DHT22;33069;51.970;5.892;2024-02-21T07:11:49;9.00;82.80
47338;DHT22;33069;51.970;5.892;2024-02-21T07:14:38;9.00;82.80
47338;DHT22;33069;51.970;5.892;2024-02-21T07:17:24;9.00;82.60
47338;DHT22;33069;51.970;5.892;2024-02-21T07:20:10;8.90;82.80
47338;DHT22;33069;51.970;5.892;2024-02-21T07:22:56;8.90;83.00
47338;DHT22;33069;51.970;5.892;2024-02-21T07:25:42;8.90;82.90
47338;DHT22;33069;51.970;5.892;2024-02-21T07:28:28;9.00;83.00
47338;DHT22;33069;51.970;5.892;2024-02-21T07:31:14;9.00;82.80
47338;DHT22;33069;51.970;5.892;2024-02-21T07:34:00;8.90;82.70
47338;DHT22;33069;51.970;5.892;2024-02-21T07:36:46;9.00;82.80
47338;DHT22;33069;51.970;5.892;2024-02-21T07:39:36;9.00;82.60
47338;DHT22;33069;51.970;5.892;2024-02-21T07:42:23;9.00;82.70
47338;DHT22;33069;51.970;5.892;2024-02-21T07:45:09;9.10;82.70
47338;DHT22;33069;51.970;5.892;2024-02-21T07:47:55;9.00;82.60
47338;DHT22;33069;51.970;5.892;2024-02-21T07:50:41;9.00;82.60
47338;DHT22;33069;51.970;5.892;2024-02-21T07:53:27;9.10;82.60
47338;DHT22;33069;51.970;5.892;2024-02-21T07:56:14;9.10;82.40
47338;DHT22;33069;51.970;5.892;2024-02-21T07:59:01;9.10;82.20
47338;DHT22;33069;51.970;5.892;2024-02-21T08:01:46;9.10;82.10
47338;DHT22;33069;51.970;5.892;2024-02-21T08:04:32;9.10;82.10
47338;DHT22;33069;51.970;5.892;2024-02-21T08:07:19;9.20;82.00
47338;DHT22;33069;51.970;5.892;2024-02-21T08:10:05;9.20;81.90
47338;DHT22;33069;51.970;5.892;2024-02-21T08:12:53;9.30;81.80
47338;DHT22;33069;51.970;5.892;2024-02-21T08:15:39;9.30;81.80
47338;DHT22;33069;51.970;5.892;2024-02-21T08:18:27;9.40;81.70
47338;DHT22;33069;51.970;5.892;2024-02-21T08:21:13;9.30;81.50
47338;DHT22;33069;51.970;5.892;2024-02-21T08:23:59;9.40;81.40
47338;DHT22;33069;51.970;5.892;2024-02-21T08:26:45;9.50;81.30
47338;DHT22;33069;51.970;5.892;2024-02-21T08:29:31;9.40;81.00
47338;DHT22;33069;51.970;5.892;2024-02-21T08:32:17;9.50;81.20
47338;DHT22;33069;51.970;5.892;2024-02-21T08:35:03;9.50;81.10
47338;DHT22;33069;51.970;5.892;2024-02-21T08:37:50;9.50;81.10
47338;DHT22;33069;51.970;5.892;2024-02-21T08:40:36;9.50;80.80
47338;DHT22;33069;51.970;5.892;2024-02-21T08:43:22;9.50;80.60
47338;DHT22;33069;51.970;5.892;2024-02-21T08:46:08;9.60;80.60
47338;DHT22;33069;51.970;5.892;2024-02-21T08:48:55;9.60;80.40
47338;DHT22;33069;51.970;5.892;2024-02-21T08:51:41;9.60;80.50
47338;DHT22;33069;51.970;5.892;2024-02-21T08:54:28;9.60;80.50
47338;DHT22;33069;51.970;5.892;2024-02-21T08:57:14;9.70;80.30
47338;DHT22;33069;51.970;5.892;2024-02-21T09:00:00;9.60;80.10
47338;DHT22;33069;51.970;5.892;2024-02-21T09:02:46;9.60;80.10
47338;DHT22;33069;51.970;5.892;2024-02-21T09:05:32;9.70;80.20
47338;DHT22;33069;51.970;5.892;2024-02-21T09:08:20;9.60;80.10
47338;DHT22;33069;51.970;5.892;2024-02-21T09:11:07;9.60;80.10
47338;DHT22;33069;51.970;5.892;2024-02-21T09:13:53;9.60;80.00
47338;DHT22;33069;51.970;5.892;2024-02-21T09:16:39;9.70;80.00
47338;DHT22;33069;51.970;5.892;2024-02-21T09:19:25;9.60;80.00
47338;DHT22;33069;51.970;5.892;2024-02-21T09:22:11;9.80;80.20
47338;DHT22;33069;51.970;5.892;2024-02-21T09:24:57;9.70;79.70
47338;DHT22;33069;51.970;5.892;2024-02-21T09:27:44;9.70;79.60
47338;DHT22;33069;51.970;5.892;2024-02-21T09:30:30;9.70;79.40
47338;DHT22;33069;51.970;5.892;2024-02-21T09:33:16;9.70;79.50
47338;DHT22;33069;51.970;5.892;2024-02-21T09:36:02;9.80;79.40
47338;DHT22;33069;51.970;5.892;2024-02-21T09:38:51;9.90;79.30
47338;DHT22;33069;51.970;5.892;2024-02-21T09:41:38;10.00;78.90
47338;DHT22;33069;51.970;5.892;2024-02-21T09:44:29;9.90;78.80
47338;DHT22;33069;51.970;5.892;2024-02-21T09:47:41;10.10;78.60
47338;DHT22;33069;51.970;5.892;2024-02-21T09:50:29;9.90;78.50
47338;DHT22;33069;51.970;5.892;2024-02-21T09:53:17;10.00;78.40
47338;DHT22;33069;51.970;5.892;2024-02-21T09:56:07;10.10;78.70
47338;DHT22;33069;51.970;5.892;2024-02-21T09:58:53;9.90;78.60
47338;DHT22;33069;51.970;5.892;2024-02-21T10:01:39;10.10;78.50
47338;DHT22;33069;51.970;5.892;2024-02-21T10:04:26;10.20;78.30
47338;DHT22;33069;51.970;5.892;2024-02-21T10:07:12;10.20;78.20
47338;DHT22;33069;51.970;5.892;2024-02-21T10:10:05;10.30;78.00
47338;DHT22;33069;51.970;5.892;2024-02-21T10:12:52;10.30;78.00
47338;DHT22;33069;51.970;5.892;2024-02-21T10:15:40;10.30;78.20
47338;DHT22;33069;51.970;5.892;2024-02-21T10:18:26;10.30;77.90
47338;DHT22;33069;51.970;5.892;2024-02-21T10:21:12;10.30;78.20
47338;DHT22;33069;51.970;5.892;2024-02-21T10:23:58;10.50;78.00
47338;DHT22;33069;51.970;5.892;2024-02-21T10:26:44;10.50;77.80
47338;DHT22;33069;51.970;5.892;2024-02-21T10:29:31;10.50;77.70
47338;DHT22;33069;51.970;5.892;2024-02-21T10:32:17;10.40;78.20
47338;DHT22;33069;51.970;5.892;2024-02-21T10:35:04;10.30;78.40
47338;DHT22;33069;51.970;5.892;2024-02-21T10:37:50;10.20;78.70
47338;DHT22;33069;51.970;5.892;2024-02-21T10:40:41;10.00;79.30
47338;DHT22;33069;51.970;5.892;2024-02-21T10:43:27;10.10;79.90
47338;DHT22;33069;51.970;5.892;2024-02-21T10:46:19;10.10;79.80
47338;DHT22;33069;51.970;5.892;2024-02-21T10:49:13;10.10;80.00
47338;DHT22;33069;51.970;5.892;2024-02-21T10:52:15;9.90;80.30
47338;DHT22;33069;51.970;5.892;2024-02-21T10:55:26;9.90;80.60
47338;DHT22;33069;51.970;5.892;2024-02-21T10:58:12;10.00;80.60
47338;DHT22;33069;51.970;5.892;2024-02-21T11:00:59;9.90;81.40
47338;DHT22;33069;51.970;5.892;2024-02-21T11:03:47;9.90;81.30
47338;DHT22;33069;51.970;5.892;2024-02-21T11:06:37;9.90;81.70
47338;DHT22;33069;51.970;5.892;2024-02-21T11:09:30;9.90;81.70
47338;DHT22;33069;51.970;5.892;2024-02-21T11:12:20;9.90;81.90
47338;DHT22;33069;51.970;5.892;2024-02-21T11:15:06;9.90;81.90
47338;DHT22;33069;51.970;5.892;2024-02-21T11:17:56;9.80;81.50
47338;DHT22;33069;51.970;5.892;2024-02-21T11:20:50;9.80;81.50
47338;DHT22;33069;51.970;5.892;2024-02-21T11:23:37;10.10;81.60
47338;DHT22;33069;51.970;5.892;2024-02-21T11:26:23;10.20;81.20
47338;DHT22;33069;51.970;5.892;2024-02-21T11:29:09;10.30;80.20
47338;DHT22;33069;51.970;5.892;2024-02-21T11:31:56;10.40;79.70
47338;DHT22;33069;51.970;5.892;2024-02-21T11:35:02;10.20;79.20
47338;DHT22;33069;51.970;5.892;2024-02-21T11:37:49;10.20;79.40
47338;DHT22;33069;51.970;5.892;2024-02-21T11:40:38;10.20;79.40
47338;DHT22;33069;51.970;5.892;2024-02-21T11:43:24;10.30;79.50
47338;DHT22;33069;51.970;5.892;2024-02-21T11:46:10;10.00;79.30
47338;DHT22;33069;51.970;5.892;2024-02-21T11:48:56;10.10;79.70
47338;DHT22;33069;51.970;5.892;2024-02-21T11:51:46;10.00;79.70
47338;DHT22;33069;51.970;5.892;2024-02-21T11:54:32;10.10;79.40
47338;DHT22;33069;51.970;5.892;2024-02-21T11:57:19;10.20;79.20
47338;DHT22;33069;51.970;5.892;2024-02-21T12:00:15;10.10;79.10
47338;DHT22;33069;51.970;5.892;2024-02-21T12:03:02;10.00;79.10
47338;DHT22;33069;51.970;5.892;2024-02-21T12:05:49;10.10;79.00
47338;DHT22;33069;51.970;5.892;2024-02-21T12:08:42;10.10;78.90
47338;DHT22;33069;51.970;5.892;2024-02-21T12:11:28;10.10;78.70
47338;DHT22;33069;51.970;5.892;2024-02-21T12:14:17;10.20;78.60
47338;DHT22;33069;51.970;5.892;2024-02-21T12:17:03;10.30;78.10
47338;DHT22;33069;51.970;5.892;2024-02-21T12:19:52;10.30;77.60
47338;DHT22;33069;51.970;5.892;2024-02-21T12:22:38;10.50;77.90
47338;DHT22;33069;51.970;5.892;2024-02-21T12:25:24;10.50;77.10
47338;DHT22;33069;51.970;5.892;2024-02-21T12:28:12;10.50;77.00
47338;DHT22;33069;51.970;5.892;2024-02-21T12:30:59;10.50;76.70
47338;DHT22;33069;51.970;5.892;2024-02-21T12:33:45;10.70;76.70
47338;DHT22;33069;51.970;5.892;2024-02-21T12:36:32;10.80;76.20
47338;DHT22;33069;51.970;5.892;2024-02-21T12:39:18;10.90;75.60
47338;DHT22;33069;51.970;5.892;2024-02-21T12:42:04;11.00;75.50
47338;DHT22;33069;51.970;5.892;2024-02-21T12:44:51;11.00;75.20
47338;DHT22;33069;51.970;5.892;2024-02-21T12:47:37;11.10;75.00
47338;DHT22;33069;51.970;5.892;2024-02-21T12:50:24;11.20;75.10
47338;DHT22;33069;51.970;5.892;2024-02-21T12:53:11;11.20;75.10
47338;DHT22;33069;51.970;5.892;2024-02-21T12:55:57;11.10;74.30
47338;DHT22;33069;51.970;5.892;2024-02-21T12:58:43;11.20;74.70
47338;DHT22;33069;51.970;5.892;2024-02-21T13:01:30;11.20;74.30
47338;DHT22;33069;51.970;5.892;2024-02-21T13:04:16;11.10;74.50
47338;DHT22;33069;51.970;5.892;2024-02-21T13:07:02;11.00;74.40
47338;DHT22;33069;51.970;5.892;2024-02-21T13:09:48;11.10;74.80
47338;DHT22;33069;51.970;5.892;2024-02-21T13:12:34;11.20;74.80
47338;DHT22;33069;51.970;5.892;2024-02-21T13:15:20;11.10;74.30
47338;DHT22;33069;51.970;5.892;2024-02-21T13:18:06;11.10;74.40
47338;DHT22;33069;51.970;5.892;2024-02-21T13:20:52;11.00;74.40
47338;DHT22;33069;51.970;5.892;2024-02-21T13:23:38;11.20;74.50
47338;DHT22;33069;51.970;5.892;2024-02-21T13:26:24;11.20;74.90
47338;DHT22;33069;51.970;5.892;2024-02-21T13:29:09;11.30;74.20
47338;DHT22;33069;51.970;5.892;2024-02-21T13:31:55;11.20;74.40
47338;DHT22;33069;51.970;5.892;2024-02-21T13:34:41;11.40;74.50
47338;DHT22;33069;51.970;5.892;2024-02-21T13:37:27;11.40;74.50
47338;DHT22;33069;51.970;5.892;2024-02-21T13:40:14;11.50;74.20
47338;DHT22;33069;51.970;5.892;2024-02-21T13:43:00;11.40;74.20
47338;DHT22;33069;51.970;5.892;2024-02-21T13:45:57;11.50;74.30
47338;DHT22;33069;51.970;5.892;2024-02-21T13:48:44;11.50;74.10
47338;DHT22;33069;51.970;5.892;2024-02-21T13:51:30;11.50;73.70
47338;DHT22;33069;51.970;5.892;2024-02-21T13:54:16;11.50;73.90
47338;DHT22;33069;51.970;5.892;2024-02-21T13:57:05;11.30;73.80
47338;DHT22;33069;51.970;5.892;2024-02-21T13:59:50;11.30;73.90
47338;DHT22;33069;51.970;5.892;2024-02-21T14:02:37;11.40;74.00
47338;DHT22;33069;51.970;5.892;2024-02-21T14:05:23;11.30;74.00
47338;DHT22;33069;51.970;5.892;2024-02-21T14:08:09;11.40;74.20
47338;DHT22;33069;51.970;5.892;2024-02-21T14:10:55;11.30;73.90
47338;DHT22;33069;51.970;5.892;2024-02-21T14:13:41;11.30;73.40
47338;DHT22;33069;51.970;5.892;2024-02-21T14:16:27;11.40;73.60
47338;DHT22;33069;51.970;5.892;2024-02-21T14:19:15;11.30;73.60
47338;DHT22;33069;51.970;5.892;2024-02-21T14:22:01;11.40;73.80
47338;DHT22;33069;51.970;5.892;2024-02-21T14:24:48;11.30;72.90
47338;DHT22;33069;51.970;5.892;2024-02-21T14:27:34;11.30;73.20
47338;DHT22;33069;51.970;5.892;2024-02-21T14:30:22;11.30;72.40
47338;DHT22;33069;51.970;5.892;2024-02-21T14:33:08;11.20;72.00
47338;DHT22;33069;51.970;5.892;2024-02-21T14:35:54;11.20;71.50
47338;DHT22;33069;51.970;5.892;2024-02-21T14:38:40;11.20;71.50
47338;DHT22;33069;51.970;5.892;2024-02-21T14:41:27;11.20;71.40
47338;DHT22;33069;51.970;5.892;2024-02-21T14:44:14;11.10;71.40
47338;DHT22;33069;51.970;5.892;2024-02-21T14:47:00;11.00;71.60
47338;DHT22;33069;51.970;5.892;2024-02-21T14:49:46;11.00;71.30
47338;DHT22;33069;51.970;5.892;2024-02-21T14:52:32;11.00;72.00
47338;DHT22;33069;51.970;5.892;2024-02-21T14:55:18;11.00;72.20
47338;DHT22;33069;51.970;5.892;2024-02-21T14:58:07;11.00;72.40
47338;DHT22;33069;51.970;5.892;2024-02-21T15:00:56;11.00;72.50
47338;DHT22;33069;51.970;5.892;2024-02-21T15:03:42;11.00;72.70
47338;DHT22;33069;51.970;5.892;2024-02-21T15:06:28;11.10;72.90
47338;DHT22;33069;51.970;5.892;2024-02-21T15:09:14;11.10;72.30
47338;DHT22;33069;51.970;5.892;2024-02-21T15:12:00;11.00;72.90
47338;DHT22;33069;51.970;5.892;2024-02-21T15:14:46;11.10;73.10
47338;DHT22;33069;51.970;5.892;2024-02-21T15:17:32;11.10;73.50
47338;DHT22;33069;51.970;5.892;2024-02-21T15:20:19;11.00;73.80
47338;DHT22;33069;51.970;5.892;2024-02-21T15:23:05;10.90;73.60
47338;DHT22;33069;51.970;5.892;2024-02-21T15:25:51;10.80;74.30
47338;DHT22;33069;51.970;5.892;2024-02-21T15:28:37;10.80;74.60
47338;DHT22;33069;51.970;5.892;2024-02-21T15:31:23;10.70;75.50
47338;DHT22;33069;51.970;5.892;2024-02-21T15:34:09;10.60;76.00
47338;DHT22;33069;51.970;5.892;2024-02-21T15:36:55;10.50;76.30
47338;DHT22;33069;51.970;5.892;2024-02-21T15:39:41;10.40;77.10
47338;DHT22;33069;51.970;5.892;2024-02-21T15:42:30;10.30;77.70
47338;DHT22;33069;51.970;5.892;2024-02-21T15:45:18;10.30;78.60
47338;DHT22;33069;51.970;5.892;2024-02-21T15:48:04;10.20;79.20
47338;DHT22;33069;51.970;5.892;2024-02-21T15:50:50;10.10;79.50
47338;DHT22;33069;51.970;5.892;2024-02-21T15:53:36;10.00;79.90
47338;DHT22;33069;51.970;5.892;2024-02-21T15:56:24;10.10;80.50
47338;DHT22;33069;51.970;5.892;2024-02-21T15:59:10;10.00;80.60
47338;DHT22;33069;51.970;5.892;2024-02-21T16:01:56;10.00;80.90
47338;DHT22;33069;51.970;5.892;2024-02-21T16:04:42;9.80;81.20
47338;DHT22;33069;51.970;5.892;2024-02-21T16:07:28;9.80;81.70
47338;DHT22;33069;51.970;5.892;2024-02-21T16:10:14;9.80;82.10
47338;DHT22;33069;51.970;5.892;2024-02-21T16:13:00;9.80;82.20
47338;DHT22;33069;51.970;5.892;2024-02-21T16:15:46;9.70;82.30
47338;DHT22;33069;51.970;5.892;2024-02-21T16:18:32;9.60;82.60
47338;DHT22;33069;51.970;5.892;2024-02-21T16:21:18;9.50;82.80
47338;DHT22;33069;51.970;5.892;2024-02-21T16:24:04;9.50;83.00
47338;DHT22;33069;51.970;5.892;2024-02-21T16:26:51;9.40;83.40
47338;DHT22;33069;51.970;5.892;2024-02-21T16:29:37;9.40;83.50
47338;DHT22;33069;51.970;5.892;2024-02-21T16:32:24;9.40;83.50
47338;DHT22;33069;51.970;5.892;2024-02-21T16:35:12;9.40;83.90
47338;DHT22;33069;51.970;5.892;2024-02-21T16:37:58;9.50;84.00
47338;DHT22;33069;51.970;5.892;2024-02-21T16:40:46;9.40;84.10
47338;DHT22;33069;51.970;5.892;2024-02-21T16:43:33;9.30;84.00
47338;DHT22;33069;51.970;5.892;2024-02-21T16:46:19;9.30;84.00
47338;DHT22;33069;51.970;5.892;2024-02-21T16:49:06;9.20;84.30
47338;DHT22;33069;51.970;5.892;2024-02-21T16:51:52;9.20;84.50
47338;DHT22;33069;51.970;5.892;2024-02-21T16:54:38;9.20;84.50
47338;DHT22;33069;51.970;5.892;2024-02-21T16:57:24;9.20;84.70
47338;DHT22;33069;51.970;5.892;2024-02-21T17:00:11;9.20;84.90
47338;DHT22;33069;51.970;5.892;2024-02-21T17:02:57;9.10;85.20
47338;DHT22;33069;51.970;5.892;2024-02-21T17:05:42;9.10;85.60
47338;DHT22;33069;51.970;5.892;2024-02-21T17:08:30;9.10;85.60
47338;DHT22;33069;51.970;5.892;2024-02-21T17:11:16;9.00;85.80
47338;DHT22;33069;51.970;5.892;2024-02-21T17:14:02;9.00;85.90
47338;DHT22;33069;51.970;5.892;2024-02-21T17:16:48;9.00;86.10
47338;DHT22;33069;51.970;5.892;2024-02-21T17:19:34;9.00;86.40
47338;DHT22;33069;51.970;5.892;2024-02-21T17:22:23;8.90;86.60
47338;DHT22;33069;51.970;5.892;2024-02-21T17:25:09;8.90;86.60
47338;DHT22;33069;51.970;5.892;2024-02-21T17:27:56;8.90;86.60
47338;DHT22;33069;51.970;5.892;2024-02-21T17:30:42;8.90;86.60
47338;DHT22;33069;51.970;5.892;2024-02-21T17:33:28;8.80;86.40
47338;DHT22;33069;51.970;5.892;2024-02-21T17:36:14;8.90;86.50
47338;DHT22;33069;51.970;5.892;2024-02-21T17:39:00;8.90;86.40
47338;DHT22;33069;51.970;5.892;2024-02-21T17:41:46;8.90;86.50
47338;DHT22;33069;51.970;5.892;2024-02-21T17:44:32;8.90;86.50